This is the latest recevied weather packets stored in our database for station/object NR0Q. If no packets are shown the sender has not sent any weather packets the latest 10 day(s).
| Time | Temp. | Humidity | Pressure | Rain* | Wind** | Luminosity | Snow |
|---|---|---|---|---|---|---|---|
| 1777582801 | 20° C | 39% | 1016.6 hPa | 0 mm | - | - | - |
| 1777581901 | 20.56° C | 36% | 1016.6 hPa | 0 mm | - | - | - |
| 1777581001 | 20° C | 38% | 1017.6 hPa | 0 mm | - | - | - |
| 1777580101 | 18.89° C | 44% | 1017.6 hPa | 0 mm | - | - | - |
| 1777579201 | 18.89° C | 44% | 1017.6 hPa | 0 mm | - | - | - |
| 1777578301 | 19.44° C | 45% | 1017.6 hPa | 0 mm | - | - | - |
| 1777577401 | 18.33° C | 47% | 1017.6 hPa | 0 mm | - | - | - |
| 1777576501 | 18.33° C | 46% | 1018.6 hPa | 0 mm | - | - | - |
| 1777575601 | 17.78° C | 48% | 1018.6 hPa | 0 mm | - | - | - |
| 1777574701 | 17.78° C | 51% | 1017.6 hPa | 0 mm | - | - | - |
| 1777573801 | 17.22° C | 53% | 1018.6 hPa | 0 mm | - | - | - |
| 1777572901 | 17.78° C | 52% | 1018.6 hPa | 0 mm | - | - | - |
| 1777572001 | 17.22° C | 53% | 1018.6 hPa | 0 mm | - | - | - |
| 1777571101 | 17.78° C | 49% | 0 hPa | 0 mm | - | - | - |
| 1777570201 | 17.78° C | 49% | 0 hPa | 0 mm | - | - | - |
| 1777569301 | 16.67° C | 55% | 0 hPa | 0 mm | - | - | - |
| 1777568401 | 16.11° C | 58% | 0 hPa | 0 mm | - | - | - |
| 1777567501 | 15.56° C | 64% | 0 hPa | 0 mm | - | - | - |
| 1777566601 | 15.56° C | 63% | 1020.7 hPa | 0 mm | - | - | - |
| 1777565701 | 14.44° C | 66% | 1020.7 hPa | 0 mm | - | - | - |
| 1777564801 | 14.44° C | 64% | 1020.7 hPa | 0 mm | - | - | - |
| 1777563901 | 13.89° C | 68% | 1020.7 hPa | 0 mm | - | - | - |
| 1777563001 | 13.33° C | 67% | 1020.7 hPa | 0 mm | - | - | - |
| 1777562101 | 13.33° C | 69% | 0 hPa | 0 mm | - | - | - |
| 1777561205 | 13.33° C | 69% | 0 hPa | 0 mm | - | - | - |
* Rain latest hour (hover to see other rain measurements)
** Current wind speed in m/s (hover to see current wind gust speed)